^^
MeteoGriva-Weather Station Historical Data
Daily Summary for March 23, 2020 Units:  Metric    English   Both
Daily Weekly Monthly Yearly Custom
  High: Low: Average:
Temperature: 13.7 °C 5.3 °C 8.9 °C
Dew Point: 8.8 °C 3.7 °C 5.6 °C
Humidity: 90.8% 68.4% 80%
Wind Speed: 2.3km/h 0km/h 0.2km/h
Wind Gust: 12.2km/h - -
Wind- - SE
Pressure: 1030.5 hPa 1022.7 hPa -
Precipitation: 0.0 mm    
Historical Graphs
 
 
Tabular Data for March 23, 2020
Time Temperature Dew Point Pressure Wind Wind Speed Wind Gust Humidity Rainfall Rate (Hourly) solar
00:04 6.6 °C 4.2 °C 1030.5 hPa Calm     84.6% 0.0 mm 0 W/m2
00:09 6.6 °C 4.1 °C 1030.1 hPa Calm     84% 0.0 mm 0 W/m2
00:14 6.6 °C 4.1 °C 1030.1 hPa Calm     84% 0.0 mm 0 W/m2
00:19 6.6 °C 4.2 °C 1030.1 hPa Calm     84.7% 0.0 mm 0 W/m2
00:24 6.6 °C 4.2 °C 1030.1 hPa Calm     84.7% 0.0 mm 0 W/m2
00:29 6.6 °C 4.3 °C 1030.1 hPa Calm     85.2% 0.0 mm 0 W/m2
00:34 6.6 °C 4.2 °C 1030.1 hPa Calm     84.4% 0.0 mm 0 W/m2
00:39 6.6 °C 4.1 °C 1030.1 hPa Calm     84% 0.0 mm 0 W/m2
00:44 6.7 °C 4.2 °C 1029.8 hPa Calm     84.4% 0.0 mm 0 W/m2
00:49 6.6 °C 4.3 °C 1029.8 hPa Calm     85% 0.0 mm 0 W/m2
00:54 6.6 °C 4.3 °C 1029.8 hPa Calm     85% 0.0 mm 0 W/m2
00:59 6.5 °C 4.1 °C 1029.8 hPa Calm     84.3% 0.0 mm 0 W/m2
01:04 6.5 °C 4.2 °C 1029.8 hPa Calm     84.8% 0.0 mm 0 W/m2
01:09 6.5 °C 4.1 °C 1029.8 hPa Calm     84.7% 0.0 mm 0 W/m2
01:14 6.5 °C 4.2 °C 1029.8 hPa Calm     85% 0.0 mm 0 W/m2
01:19 6.4 °C 4.1 °C 1029.5 hPa Calm     85% 0.0 mm 0 W/m2
01:24 6.2 °C 4 °C 1029.8 hPa Calm     85.7% 0.0 mm 0 W/m2
01:29 6.1 °C 4.1 °C 1029.5 hPa Calm     86.8% 0.0 mm 0 W/m2
01:34 6.1 °C 4.1 °C 1029.5 hPa Calm     87.3% 0.0 mm 0 W/m2
01:39 6 °C 3.9 °C 1029.8 hPa Calm     86.4% 0.0 mm 0 W/m2
01:44 6.1 °C 3.9 °C 1029.5 hPa Calm     85.8% 0.0 mm 0 W/m2
01:49 6.1 °C 3.9 °C 1029.5 hPa Calm     85.8% 0.0 mm 0 W/m2
01:54 6.1 °C 3.9 °C 1029.5 hPa Calm     86% 0.0 mm 0 W/m2
01:59 6.1 °C 3.9 °C 1029.5 hPa Calm     86% 0.0 mm 0 W/m2
02:04 5.9 °C 3.8 °C 1029.1 hPa Calm     86.6% 0.0 mm 0 W/m2
02:09 6 °C 3.8 °C 1029.5 hPa Calm     86% 0.0 mm 0 W/m2
02:14 6 °C 3.8 °C 1029.1 hPa Calm     86% 0.0 mm 0 W/m2
02:19 6 °C 3.8 °C 1029.1 hPa Calm     85.9% 0.0 mm 0 W/m2
02:24 6.1 °C 3.9 °C 1028.8 hPa Calm     86% 0.0 mm 0 W/m2
02:29 6.1 °C 3.9 °C 1029.1 hPa Calm     86% 0.0 mm 0 W/m2
02:34 6.1 °C 3.9 °C 1028.8 hPa Calm     86% 0.0 mm 0 W/m2
02:39 6.1 °C 4.1 °C 1028.8 hPa Calm     86.8% 0.0 mm 0 W/m2
02:44 5.9 °C 3.9 °C 1028.8 hPa Calm     87% 0.0 mm 0 W/m2
02:49 5.8 °C 3.8 °C 1028.8 hPa Calm     87% 0.0 mm 0 W/m2
02:54 5.9 °C 3.8 °C 1028.8 hPa Calm     86.3% 0.0 mm 0 W/m2
02:59 5.9 °C 3.9 °C 1029.1 hPa Calm     86.8% 0.0 mm 0 W/m2
03:04 5.9 °C 3.9 °C 1029.1 hPa Calm     86.9% 0.0 mm 0 W/m2
03:09 5.9 °C 3.9 °C 1028.8 hPa Calm     87.2% 0.0 mm 0 W/m2
03:14 5.8 °C 4 °C 1028.8 hPa Calm     88.2% 0.0 mm 0 W/m2
03:19 5.8 °C 4 °C 1028.8 hPa Calm     88.3% 0.0 mm 0 W/m2
03:24 6 °C 3.9 °C 1028.5 hPa Calm     86.7% 0.0 mm 0 W/m2
03:29 6.1 °C 3.9 °C 1028.5 hPa Calm     86% 0.0 mm 0 W/m2
03:34 6.1 °C 4.1 °C 1028.8 hPa Calm     86.8% 0.0 mm 0 W/m2
03:39 6 °C 4.2 °C 1028.5 hPa Calm     87.8% 0.0 mm 0 W/m2
03:44 6 °C 4 °C 1028.8 hPa Calm     87% 0.0 mm 0 W/m2
03:49 6 °C 4 °C 1028.5 hPa Calm     87% 0.0 mm 0 W/m2
03:54 6.1 °C 3.9 °C 1028.5 hPa Calm     86.4% 0.0 mm 0 W/m2
03:59 6.1 °C 3.9 °C 1028.5 hPa Calm     86% 0.0 mm 0 W/m2
04:04 6.2 °C 4.1 °C 1028.5 hPa Calm     86.6% 0.0 mm 0 W/m2
04:09 6.2 °C 4 °C 1028.5 hPa Calm     86.1% 0.0 mm 0 W/m2
04:14 6.2 °C 4.1 °C 1028.5 hPa Calm     86.3% 0.0 mm 0 W/m2
04:19 6.2 °C 4 °C 1028.5 hPa Calm     86% 0.0 mm 0 W/m2
04:24 6.4 °C 4.1 °C 1028.8 hPa Calm     85.2% 0.0 mm 0 W/m2
04:29 6.5 °C 4.2 °C 1028.5 hPa Calm     85% 0.0 mm 0 W/m2
04:34 6.5 °C 4.2 °C 1028.5 hPa Calm     85% 0.0 mm 0 W/m2
04:39 6.5 °C 4.3 °C 1028.5 hPa Calm     85.6% 0.0 mm 0 W/m2
04:44 6.3 °C 4.1 °C 1028.5 hPa Calm     86.3% 0.0 mm 0 W/m2
04:49 6.1 °C 4.2 °C 1028.5 hPa Calm     87.3% 0.0 mm 0 W/m2
04:54 6.1 °C 4.2 °C 1028.5 hPa Calm     87.4% 0.0 mm 0 W/m2
04:59 6 °C 4.2 °C 1028.5 hPa Calm     88% 0.0 mm 0 W/m2
05:04 5.7 °C 3.9 °C 1028.1 hPa Calm     88.3% 0.0 mm 0 W/m2
05:09 5.5 °C 3.8 °C 1028.5 hPa Calm     89% 0.0 mm 0 W/m2
05:14 5.5 °C 3.8 °C 1028.5 hPa Calm     88.2% 0.0 mm 0 W/m2
05:19 5.6 °C 3.8 °C 1028.5 hPa Calm     88% 0.0 mm 0 W/m2
05:24 5.6 °C 3.8 °C 1028.5 hPa Calm     88% 0.0 mm 0 W/m2
05:29 5.6 °C 3.8 °C 1028.5 hPa Calm     88% 0.0 mm 0 W/m2
05:34 5.6 °C 3.8 °C 1028.1 hPa Calm     88% 0.0 mm 0 W/m2
05:39 5.6 °C 3.9 °C 1028.1 hPa Calm     88.8% 0.0 mm 0 W/m2
05:44 5.6 °C 3.9 °C 1028.1 hPa Calm     89% 0.0 mm 0 W/m2
05:49 5.5 °C 3.9 °C 1028.1 hPa Calm     89.7% 0.0 mm 0 W/m2
05:54 5.5 °C 4 °C 1028.1 hPa Calm     90% 0.0 mm 0 W/m2
05:59 5.5 °C 3.8 °C 1028.1 hPa Calm     89% 0.0 mm 0 W/m2
06:04 5.4 °C 3.8 °C 1028.1 hPa Calm     89.3% 0.0 mm 0 W/m2
06:09 5.4 °C 3.8 °C 1028.1 hPa Calm     89.6% 0.0 mm 0 W/m2
06:14 5.4 °C 3.7 °C 1028.5 hPa Calm     88.3% 0.0 mm 0 W/m2
06:19 5.5 °C 3.8 °C 1028.1 hPa Calm     88.7% 0.0 mm 0 W/m2
06:24 5.5 °C 3.9 °C 1028.1 hPa Calm     89.8% 0.0 mm 0 W/m2
06:29 5.3 °C 4 °C 1028.1 hPa Calm     90.8% 0.0 mm 0 W/m2
06:34 5.3 °C 3.7 °C 1028.1 hPa Calm     89.6% 0.0 mm 0 W/m2
06:39 5.4 °C 3.7 °C 1028.1 hPa Calm     89% 0.0 mm 0 W/m2
06:44 5.5 °C 3.8 °C 1028.1 hPa Calm     89% 0.0 mm 0 W/m2
06:49 5.6 °C 3.8 °C 1028.1 hPa Calm     89% 0.0 mm 0 W/m2
06:54 5.5 °C 3.8 °C 1028.1 hPa Calm     89% 0.0 mm 0 W/m2
06:59 5.5 °C 3.8 °C 1028.1 hPa Calm     88.7% 0.0 mm 0 W/m2
07:04 5.7 °C 3.9 °C 1028.1 hPa Calm     88% 0.0 mm 0 W/m2
07:09 5.8 °C 4.1 °C 1028.1 hPa Calm     88.7% 0.0 mm 0 W/m2
07:14 5.8 °C 4.1 °C 1028.1 hPa Calm     89% 0.0 mm 0 W/m2
07:19 5.8 °C 4.1 °C 1028.1 hPa Calm     89% 0.0 mm 0 W/m2
07:24 5.7 °C 4 °C 1028.1 hPa Calm     89% 0.0 mm 0 W/m2
07:29 5.7 °C 3.9 °C 1028.1 hPa Calm     88.3% 0.0 mm 0 W/m2
07:34 5.7 °C 3.8 °C 1028.5 hPa Calm     87.4% 0.0 mm 4 W/m2
07:39 5.8 °C 3.8 °C 1028.5 hPa Calm     87% 0.0 mm 8 W/m2
07:44 6.1 °C 3.9 °C 1028.1 hPa Calm     86.3% 0.0 mm 12 W/m2
07:49 6.5 °C 4.3 °C 1028.5 hPa Calm     86% 0.0 mm 18 W/m2
07:54 6.5 °C 4.2 °C 1028.5 hPa Calm     85.4% 0.0 mm 23 W/m2
07:59 6.6 °C 4.1 °C 1028.5 hPa Calm     84.2% 0.0 mm 28 W/m2
08:04 7.2 °C 4.3 °C 1028.5 hPa Calm     82.1% 0.0 mm 33 W/m2
08:09 8 °C 4.9 °C 1028.5 hPa Calm     81% 0.0 mm 38 W/m2
08:14 8.2 °C 4.7 °C 1028.5 hPa Calm     78.8% 0.0 mm 42 W/m2
08:19 8.3 °C 4.7 °C 1028.8 hPa Calm     78% 0.0 mm 46 W/m2
08:24 8.5 °C 5 °C 1028.8 hPa Calm     78.8% 0.0 mm 50 W/m2
08:29 8.7 °C 5.3 °C 1028.8 hPa Calm     79.3% 0.0 mm 53 W/m2
08:34 8.6 °C 5.3 °C 1028.8 hPa Calm     79.6% 0.0 mm 57 W/m2
08:39 8.6 °C 5.2 °C 1028.8 hPa Calm     79.3% 0.0 mm 59 W/m2
08:44 8.6 °C 5.2 °C 1028.8 hPa Calm     79% 0.0 mm 63 W/m2
08:49 8.7 °C 5.2 °C 1028.8 hPa Calm     78.7% 0.0 mm 65 W/m2
08:54 8.8 °C 4.8 °C 1028.8 hPa Calm     76.4% 0.0 mm 68 W/m2
08:59 8.8 °C 5 °C 1028.8 hPa Calm     76.8% 0.0 mm 70 W/m2
09:04 9.1 °C 5.1 °C 1028.5 hPa Calm     76% 0.0 mm 72 W/m2
09:09 9.6 °C 5.6 °C 1028.8 hPa Calm     76.2% 0.0 mm 74 W/m2
09:14 9.6 °C 5.6 °C 1028.5 hPa Calm     75.9% 0.0 mm 75 W/m2
09:19 9.7 °C 5.1 °C 1028.5 hPa Calm     72.7% 0.0 mm 77 W/m2
09:24 9.9 °C 5.3 °C 1028.5 hPa Calm     73.1% 0.0 mm 78 W/m2
09:29 10 °C 5.6 °C 1028.5 hPa Calm     74.3% 0.0 mm 80 W/m2
09:34 9.9 °C 5.9 °C 1028.8 hPa Calm     75.8% 0.0 mm 81 W/m2
09:39 10 °C 5.6 °C 1028.5 hPa Calm     74.1% 0.0 mm 81 W/m2
09:44 10.3 °C 5.5 °C 1028.5 hPa Calm     72% 0.0 mm 82 W/m2
09:48 11.4 °C 6.6 °C 1028.5 hPa ESE 0.8 km/h 7.9 km/h 72.3% 0.0 mm 82 W/m2
09:54 11.4 °C 6.7 °C 1028.5 hPa Calm     72.9% 0.0 mm 83 W/m2
09:59 11.4 °C 6.7 °C 1028.5 hPa Calm     72.9% 0.0 mm 83 W/m2
10:04 11.4 °C 6.7 °C 1028.5 hPa SE 1.6 km/h 7.9 km/h 73% 0.0 mm 83 W/m2
10:09 11.3 °C 6.6 °C 1028.5 hPa SSE 0.7 km/h 7.9 km/h 73% 0.0 mm 83 W/m2
10:14 11.3 °C 6.6 °C 1028.5 hPa ESE 0.6 km/h 7.9 km/h 73% 0.0 mm 84 W/m2
10:19 11.3 °C 6.6 °C 1028.5 hPa SSE 0.4 km/h 4 km/h 73% 0.0 mm 85 W/m2
10:24 11.3 °C 6.6 °C 1028.1 hPa SE 0.4 km/h 7.9 km/h 73.2% 0.0 mm 86 W/m2
10:29 11.1 °C 6.6 °C 1028.1 hPa SSE 0.5 km/h 7.9 km/h 74% 0.0 mm 88 W/m2
10:34 11.1 °C 6.4 °C 1028.1 hPa SSE 1.2 km/h 7.9 km/h 72.9% 0.0 mm 91 W/m2
10:39 11.2 °C 6.5 °C 1028.1 hPa SE 1.9 km/h 12.2 km/h 73% 0.0 mm 93 W/m2
10:44 11.2 °C 6.6 °C 1028.1 hPa SE 0.8 km/h 7.9 km/h 73.7% 0.0 mm 95 W/m2
10:49 11.3 °C 6.7 °C 1028.1 hPa SSE 1 km/h 12.2 km/h 73.3% 0.0 mm 98 W/m2
10:54 11.3 °C 6.6 °C 1028.1 hPa ESE 1.1 km/h 7.9 km/h 72.9% 0.0 mm 102 W/m2
10:59 11.3 °C 6.5 °C 1027.8 hPa Calm   7.9 km/h 72.3% 0.0 mm 105 W/m2
11:04 11.3 °C 6.4 °C 1027.8 hPa SSE 0.2 km/h 4 km/h 72.2% 0.0 mm 110 W/m2
11:09 11.8 °C 6.8 °C 1027.8 hPa Calm   4 km/h 71.8% 0.0 mm 114 W/m2
11:14 11.8 °C 6.8 °C 1027.8 hPa SSE 1.6 km/h 7.9 km/h 71.4% 0.0 mm 118 W/m2
11:19 11.8 °C 6.8 °C 1027.4 hPa SSE 0.8 km/h 7.9 km/h 71.6% 0.0 mm 122 W/m2
11:24 11.8 °C 6.9 °C 1027.4 hPa SSE 0.4 km/h 7.9 km/h 71.9% 0.0 mm 123 W/m2
11:29 12.2 °C 7.1 °C 1027.4 hPa SSE 1.1 km/h 7.9 km/h 71.3% 0.0 mm 108 W/m2
11:34 12.1 °C 7.4 °C 1027.4 hPa ESE 0.4 km/h 7.9 km/h 72.8% 0.0 mm 84 W/m2
11:39 12 °C 7 °C 1026.8 hPa Calm   7.9 km/h 71.6% 0.0 mm 84 W/m2
11:44 11.9 °C 7.2 °C 1027.1 hPa East 1 km/h 7.9 km/h 72.8% 0.0 mm 83 W/m2
11:49 11.4 °C 6.8 °C 1026.8 hPa East 0.9 km/h 7.9 km/h 73.8% 0.0 mm 82 W/m2
11:54 11.3 °C 6.7 °C 1026.8 hPa ESE 1.6 km/h 7.9 km/h 73.4% 0.0 mm 95 W/m2
11:59 11.3 °C 6.9 °C 1026.8 hPa SSE 1 km/h 7.9 km/h 74.4% 0.0 mm 152 W/m2
12:04 11.3 °C 6.6 °C 1026.4 hPa SE 1 km/h 7.9 km/h 73.2% 0.0 mm 172 W/m2
12:09 11.8 °C 6.9 °C 1026.1 hPa SSE 0.2 km/h 7.9 km/h 72% 0.0 mm 188 W/m2
12:14 11.9 °C 7 °C 1026.4 hPa SSE 1.3 km/h 12.2 km/h 72% 0.0 mm 197 W/m2
12:19 11.8 °C 6.9 °C 1026.1 hPa SSE 0.8 km/h 12.2 km/h 71.8% 0.0 mm 208 W/m2
12:24 11.8 °C 6.8 °C 1025.7 hPa SE 1.4 km/h 7.9 km/h 71.4% 0.0 mm 219 W/m2
12:29 12.1 °C 6.9 °C 1025.7 hPa South 0.7 km/h 7.9 km/h 70.8% 0.0 mm 237 W/m2
12:34 12.1 °C 6.9 °C 1025.7 hPa South 0.1 km/h 7.9 km/h 70.6% 0.0 mm 248 W/m2
12:39 12.2 °C 7 °C 1025.7 hPa SSE 0.2 km/h 7.9 km/h 70.4% 0.0 mm 258 W/m2
12:44 12.2 °C 6.9 °C 1025.7 hPa SSE 1 km/h 7.9 km/h 70% 0.0 mm 266 W/m2
12:49 12.3 °C 7.1 °C 1025.4 hPa ESE 0.4 km/h 7.9 km/h 70.2% 0.0 mm 279 W/m2
12:54 12.3 °C 7.1 °C 1025.4 hPa SE 1 km/h 7.9 km/h 70.4% 0.0 mm 288 W/m2
12:59 12.3 °C 7.3 °C 1025.4 hPa ESE 1.2 km/h 12.2 km/h 71.3% 0.0 mm 296 W/m2
13:04 12.2 °C 7.3 °C 1025.1 hPa ESE 0.8 km/h 12.2 km/h 72% 0.0 mm 298 W/m2
13:09 12.1 °C 7 °C 1025.1 hPa ESE 0.6 km/h 12.2 km/h 71.2% 0.0 mm 306 W/m2
13:14 12 °C 7.1 °C 1025.1 hPa ENE 0.3 km/h 7.9 km/h 71.8% 0.0 mm 311 W/m2
13:19 11.9 °C 7.1 °C 1025.1 hPa NNE 0.2 km/h 7.9 km/h 72.5% 0.0 mm 315 W/m2
13:24 11.9 °C 6.9 °C 1024.7 hPa SE 0.5 km/h 7.9 km/h 71.4% 0.0 mm 320 W/m2
13:29 12.1 °C 6.9 °C 1024.7 hPa East 0.8 km/h 12.2 km/h 70.7% 0.0 mm 322 W/m2
13:34 12.2 °C 7.1 °C 1024.7 hPa SSE 2.3 km/h 7.9 km/h 71% 0.0 mm 323 W/m2
13:39 12.3 °C 7 °C 1024.4 hPa Calm   7.9 km/h 70.2% 0.0 mm 325 W/m2
13:44 12.3 °C 7.1 °C 1024.7 hPa SSE 1.1 km/h 12.2 km/h 70.2% 0.0 mm 324 W/m2
13:49 12.5 °C 7.3 °C 1024.7 hPa SE 1.2 km/h 12.2 km/h 70.7% 0.0 mm 323 W/m2
13:54 12.6 °C 7.2 °C 1024.4 hPa SE 0.3 km/h 4 km/h 69.8% 0.0 mm 323 W/m2
13:59 12.7 °C 7.3 °C 1024.4 hPa ESE 0.7 km/h 4 km/h 69.9% 0.0 mm 322 W/m2
14:04 12.7 °C 7.6 °C 1024.4 hPa ENE 0.1 km/h 7.9 km/h 71.1% 0.0 mm 320 W/m2
14:09 12.9 °C 7.6 °C 1024.0 hPa SE 0.6 km/h 7.9 km/h 70.2% 0.0 mm 317 W/m2
14:14 13 °C 7.6 °C 1024.0 hPa SSE 0.3 km/h 7.9 km/h 69.6% 0.0 mm 316 W/m2
14:19 13.1 °C 7.6 °C 1024.0 hPa SSE 0.7 km/h 4 km/h 69.4% 0.0 mm 313 W/m2
14:24 13.2 °C 7.6 °C 1024.0 hPa SSE 0.7 km/h 7.9 km/h 69% 0.0 mm 310 W/m2
14:29 13.3 °C 7.7 °C 1024.0 hPa Calm   7.9 km/h 69% 0.0 mm 304 W/m2
14:34 13.4 °C 7.9 °C 1024.0 hPa SE 0.4 km/h 7.9 km/h 69.6% 0.0 mm 298 W/m2
14:39 13.4 °C 7.9 °C 1023.7 hPa SSE 0.8 km/h 7.9 km/h 69.4% 0.0 mm 284 W/m2
14:44 13.4 °C 7.9 °C 1023.7 hPa SSE 1.9 km/h 7.9 km/h 69.3% 0.0 mm 289 W/m2
14:49 13.2 °C 7.9 °C 1023.4 hPa SSE 0.6 km/h 7.9 km/h 70.2% 0.0 mm 283 W/m2
14:54 13 °C 8.1 °C 1023.4 hPa ESE 0.6 km/h 7.9 km/h 71.8% 0.0 mm 278 W/m2
14:59 13 °C 7.8 °C 1023.4 hPa East 0.4 km/h 7.9 km/h 70.6% 0.0 mm 273 W/m2
15:04 13 °C 7.6 °C 1023.4 hPa SE 0.8 km/h 7.9 km/h 69.8% 0.0 mm 268 W/m2
15:09 13.3 °C 7.6 °C 1023.4 hPa Calm     68.4% 0.0 mm 263 W/m2
15:14 13.6 °C 8.1 °C 1023.4 hPa Calm   4 km/h 69.6% 0.0 mm 253 W/m2
15:19 13.5 °C 8 °C 1023.4 hPa SSE 0.4 km/h 7.9 km/h 69.7% 0.0 mm 250 W/m2
15:24 13.5 °C 7.9 °C 1023.0 hPa Calm     69.1% 0.0 mm 240 W/m2
15:29 13.7 °C 8.1 °C 1023.0 hPa Calm     69.1% 0.0 mm 230 W/m2
15:34 13.6 °C 8.6 °C 1023.0 hPa SSE 0.4 km/h 4 km/h 71.6% 0.0 mm 188 W/m2
15:39 13.4 °C 8.8 °C 1023.0 hPa Calm   4 km/h 73.2% 0.0 mm 127 W/m2
15:44 13.1 °C 8.7 °C 1023.0 hPa Calm     74.5% 0.0 mm 49 W/m2
15:49 12.1 °C 7.9 °C 1023.4 hPa Calm     75.7% 0.0 mm 45 W/m2
15:54 11.4 °C 7.4 °C 1023.0 hPa Calm     76.7% 0.0 mm 44 W/m2
15:59 11.4 °C 7.5 °C 1023.0 hPa Calm     77% 0.0 mm 38 W/m2
16:04 11.3 °C 7.6 °C 1023.0 hPa Calm     78% 0.0 mm 33 W/m2
16:09 11 °C 7.4 °C 1023.0 hPa Calm     78.2% 0.0 mm 31 W/m2
16:14 10.6 °C 7.2 °C 1023.0 hPa Calm     79.4% 0.0 mm 28 W/m2
16:19 10.5 °C 7.3 °C 1023.0 hPa Calm     80.1% 0.0 mm 26 W/m2
16:24 10.4 °C 7.3 °C 1023.0 hPa Calm     80.8% 0.0 mm 23 W/m2
16:29 10.1 °C 7.1 °C 1022.7 hPa Calm     81.4% 0.0 mm 21 W/m2
16:34 9.8 °C 6.7 °C 1023.0 hPa Calm     81% 0.0 mm 19 W/m2
16:39 9.7 °C 6.8 °C 1023.0 hPa Calm     81.8% 0.0 mm 17 W/m2
16:44 9.7 °C 6.8 °C 1023.0 hPa Calm     82% 0.0 mm 13 W/m2
16:49 9.7 °C 6.8 °C 1023.0 hPa Calm     82% 0.0 mm 11 W/m2
16:54 9.6 °C 6.7 °C 1022.7 hPa Calm     82% 0.0 mm 8 W/m2
16:59 9.6 °C 6.8 °C 1023.0 hPa Calm     82.3% 0.0 mm 6 W/m2
17:04 9.6 °C 6.8 °C 1023.0 hPa Calm     83% 0.0 mm 3 W/m2
17:09 9.4 °C 6.7 °C 1023.0 hPa Calm     83% 0.0 mm 0 W/m2
17:14 9.1 °C 6.5 °C 1023.0 hPa Calm     83.9% 0.0 mm 0 W/m2
17:19 9.1 °C 6.5 °C 1022.7 hPa Calm     83.9% 0.0 mm 0 W/m2
17:24 9.1 °C 6.4 °C 1023.0 hPa Calm     83% 0.0 mm 0 W/m2
17:29 9.1 °C 6.4 °C 1023.0 hPa Calm     83% 0.0 mm 0 W/m2
17:34 9.1 °C 6.4 °C 1023.0 hPa Calm     83% 0.0 mm 0 W/m2
17:39 9.1 °C 6.5 °C 1023.0 hPa Calm     84% 0.0 mm 0 W/m2
17:44 9.1 °C 6.5 °C 1023.0 hPa Calm     84% 0.0 mm 0 W/m2
17:49 9 °C 6.4 °C 1023.0 hPa Calm     84% 0.0 mm 0 W/m2
17:54 9.1 °C 6.5 °C 1023.0 hPa Calm     84% 0.0 mm 0 W/m2
17:59 9.1 °C 6.5 °C 1023.0 hPa Calm     84% 0.0 mm 0 W/m2
18:04 9.1 °C 6.5 °C 1023.0 hPa Calm     84% 0.0 mm 0 W/m2
18:09 9.1 °C 6.6 °C 1023.0 hPa Calm     84.6% 0.0 mm 0 W/m2
18:14 8.9 °C 6.4 °C 1023.0 hPa Calm     84.5% 0.0 mm 0 W/m2
18:19 8.9 °C 6.4 °C 1023.0 hPa Calm     84.6% 0.0 mm 0 W/m2
18:24 8.9 °C 6.6 °C 1023.0 hPa Calm     85.7% 0.0 mm 0 W/m2
18:29 8.9 °C 6.5 °C 1023.0 hPa Calm     85% 0.0 mm 0 W/m2
18:34 8.9 °C 6.1 °C 1022.7 hPa Calm     82.6% 0.0 mm 0 W/m2
18:39 8.9 °C 5.8 °C 1023.0 hPa Calm     80.8% 0.0 mm 0 W/m2
18:44 9 °C 5.7 °C 1022.7 hPa Calm     80% 0.0 mm 0 W/m2
18:49 9.1 °C 5.7 °C 1022.7 hPa Calm     79.1% 0.0 mm 0 W/m2
18:54 9.4 °C 5.8 °C 1022.7 hPa Calm     78.3% 0.0 mm 0 W/m2
18:59 9.5 °C 5.7 °C 1022.7 hPa Calm     77.2% 0.0 mm 0 W/m2
19:04 9.6 °C 5.6 °C 1023.0 hPa Calm     76.2% 0.0 mm 0 W/m2
19:09 9.8 °C 5.9 °C 1023.0 hPa Calm     76.9% 0.0 mm 0 W/m2
19:14 9.8 °C 6.1 °C 1023.0 hPa Calm     78% 0.0 mm 0 W/m2
19:19 9.8 °C 6.2 °C 1023.0 hPa Calm     78.7% 0.0 mm 0 W/m2
19:24 9.7 °C 6.3 °C 1023.0 hPa Calm     79.1% 0.0 mm 0 W/m2
19:29 9.6 °C 6.3 °C 1023.0 hPa Calm     80% 0.0 mm 0 W/m2
19:34 9.2 °C 5.9 °C 1023.0 hPa Calm     80% 0.0 mm 0 W/m2
19:39 9.3 °C 5.8 °C 1023.0 hPa Calm     79.1% 0.0 mm 0 W/m2
19:44 9.3 °C 5.8 °C 1023.0 hPa Calm     79% 0.0 mm 0 W/m2
19:49 9.3 °C 5.8 °C 1023.0 hPa Calm     79% 0.0 mm 0 W/m2
19:54 9.4 °C 6.1 °C 1023.0 hPa Calm     80% 0.0 mm 0 W/m2
19:59 9.3 °C 6.1 °C 1023.0 hPa Calm     80.4% 0.0 mm 0 W/m2
20:04 9.3 °C 6.4 °C 1023.0 hPa Calm     81.8% 0.0 mm 0 W/m2
20:09 9.2 °C 6.3 °C 1023.0 hPa Calm     82.1% 0.0 mm 0 W/m2
20:14 9.1 °C 6.2 °C 1023.0 hPa Calm     81.9% 0.0 mm 0 W/m2
20:19 9.1 °C 6.2 °C 1023.0 hPa Calm     82% 0.0 mm 0 W/m2
20:24 9.1 °C 6.2 °C 1023.4 hPa Calm     82% 0.0 mm 0 W/m2
20:29 9 °C 6.3 °C 1023.0 hPa Calm     83% 0.0 mm 0 W/m2
20:34 8.9 °C 6.2 °C 1023.0 hPa Calm     83% 0.0 mm 0 W/m2
20:39 8.8 °C 6.1 °C 1023.0 hPa Calm     82.9% 0.0 mm 0 W/m2
20:44 8.8 °C 6 °C 1023.0 hPa Calm     82% 0.0 mm 0 W/m2
20:49 8.8 °C 6.2 °C 1023.0 hPa Calm     83% 0.0 mm 0 W/m2
20:54 8.6 °C 5.9 °C 1023.0 hPa Calm     83% 0.0 mm 0 W/m2
20:59 8.6 °C 5.9 °C 1023.0 hPa Calm     83.2% 0.0 mm 0 W/m2
21:04 8.6 °C 5.8 °C 1023.0 hPa Calm     82.6% 0.0 mm 0 W/m2
21:09 8.7 °C 5.8 °C 1023.0 hPa Calm     82% 0.0 mm 0 W/m2
21:14 8.8 °C 5.9 °C 1023.0 hPa Calm     82.1% 0.0 mm 0 W/m2
21:19 8.8 °C 5.9 °C 1023.0 hPa Calm     82% 0.0 mm 0 W/m2
21:24 8.8 °C 5.9 °C 1023.0 hPa Calm     82% 0.0 mm 0 W/m2
21:29 8.8 °C 5.9 °C 1023.0 hPa Calm     82% 0.0 mm 0 W/m2
21:34 8.9 °C 6 °C 1023.0 hPa Calm     82% 0.0 mm 0 W/m2
21:39 8.8 °C 6 °C 1023.0 hPa Calm     82.6% 0.0 mm 0 W/m2
21:44 8.8 °C 5.9 °C 1023.0 hPa Calm     82.1% 0.0 mm 0 W/m2
21:49 8.8 °C 5.9 °C 1023.0 hPa Calm     82% 0.0 mm 0 W/m2
21:54 8.9 °C 5.9 °C 1023.0 hPa Calm     81.7% 0.0 mm 0 W/m2
21:59 8.9 °C 5.8 °C 1023.0 hPa Calm     81% 0.0 mm 0 W/m2
22:04 8.9 °C 5.8 °C 1023.0 hPa Calm     81% 0.0 mm 0 W/m2
22:09 8.9 °C 5.8 °C 1022.7 hPa Calm     81% 0.0 mm 0 W/m2
22:14 8.7 °C 5.6 °C 1023.0 hPa Calm     81% 0.0 mm 0 W/m2
22:19 8.7 °C 5.7 °C 1022.7 hPa Calm     81.7% 0.0 mm 0 W/m2
22:24 8.7 °C 5.8 °C 1023.0 hPa Calm     82% 0.0 mm 0 W/m2
22:29 8.7 °C 5.7 °C 1023.0 hPa Calm     81.7% 0.0 mm 0 W/m2
22:34 8.6 °C 5.7 °C 1023.0 hPa Calm     82% 0.0 mm 0 W/m2
22:39 8.5 °C 5.6 °C 1023.0 hPa Calm     82% 0.0 mm 0 W/m2
22:44 8.5 °C 5.6 °C 1023.0 hPa Calm     81.9% 0.0 mm 0 W/m2
22:49 8.5 °C 5.4 °C 1023.0 hPa Calm     81% 0.0 mm 0 W/m2
22:54 8.5 °C 5.4 °C 1023.0 hPa Calm     81% 0.0 mm 0 W/m2
22:59 8.5 °C 5.5 °C 1023.0 hPa Calm     81.4% 0.0 mm 0 W/m2
23:04 8.4 °C 5.7 °C 1023.0 hPa Calm     82.8% 0.0 mm 0 W/m2
23:09 8.4 °C 5.5 °C 1023.0 hPa Calm     82.1% 0.0 mm 0 W/m2
23:14 8.5 °C 5.5 °C 1023.0 hPa Calm     81.8% 0.0 mm 0 W/m2
23:19 8.5 °C 5.5 °C 1023.0 hPa Calm     81.4% 0.0 mm 0 W/m2
23:24 8.5 °C 5.5 °C 1023.0 hPa Calm     81.4% 0.0 mm 0 W/m2
23:29 8.6 °C 5.4 °C 1022.7 hPa Calm     81% 0.0 mm 0 W/m2
23:34 8.7 °C 5.6 °C 1023.0 hPa Calm     81.3% 0.0 mm 0 W/m2
23:39 8.7 °C 5.6 °C 1023.0 hPa Calm     81% 0.0 mm 0 W/m2
23:44 8.7 °C 5.6 °C 1023.0 hPa Calm     81% 0.0 mm 0 W/m2
23:49 8.7 °C 5.6 °C 1023.0 hPa Calm     81% 0.0 mm 0 W/m2
23:54 8.7 °C 5.7 °C 1022.7 hPa Calm     81% 0.0 mm 0 W/m2
23:59 8.7 °C 5.8 °C 1023.0 hPa Calm     82% 0.0 mm 0 W/m2
Juneau County Weather
Compliments of Weather Underground - 2 mb